createdAt,value
2017-07-23T00:01:11.736Z,94116.52
2017-07-23T00:03:39.467Z,94107.50
2017-07-23T00:06:07.232Z,94114.95
2017-07-23T00:08:34.900Z,94114.66
2017-07-23T00:11:02.660Z,94124.92
2017-07-23T00:13:30.376Z,94137.45
2017-07-23T00:15:58.074Z,94160.70
2017-07-23T00:18:25.855Z,94170.30
2017-07-23T00:20:53.554Z,94166.59
2017-07-23T00:23:21.330Z,94171.30
2017-07-23T00:25:49.070Z,94171.76
2017-07-23T00:28:16.781Z,94165.95
2017-07-23T00:30:44.537Z,94159.66
2017-07-23T00:33:12.278Z,94153.41
2017-07-23T00:35:39.982Z,94153.70
2017-07-23T00:38:07.751Z,94154.13
2017-07-23T00:40:35.465Z,94151.60
2017-07-23T00:43:03.266Z,94154.68
2017-07-23T00:45:30.967Z,94147.92
2017-07-23T00:47:58.715Z,94140.52
2017-07-23T00:50:26.434Z,94135.39
2017-07-23T00:52:54.151Z,94138.45
2017-07-23T00:55:21.905Z,94141.95
2017-07-23T00:57:49.595Z,94150.80
2017-07-23T01:00:17.347Z,94151.77
2017-07-23T01:02:45.065Z,94146.23
2017-07-23T01:05:12.811Z,94135.95
2017-07-23T01:07:40.624Z,94131.81
2017-07-23T01:10:08.383Z,94131.83
2017-07-23T01:12:36.153Z,94123.58
2017-07-23T01:15:04.004Z,94125.06
2017-07-23T01:17:31.716Z,94118.30
2017-07-23T01:19:59.466Z,94111.78
2017-07-23T01:22:27.188Z,94117.61
2017-07-23T01:24:54.909Z,94104.50
2017-07-23T01:27:22.690Z,94104.63
2017-07-23T01:29:50.406Z,94098.73
2017-07-23T01:32:18.166Z,94099.27
2017-07-23T01:34:45.887Z,94097.94
2017-07-23T01:37:13.576Z,94104.56
2017-07-23T01:39:41.347Z,94098.72
2017-07-23T01:42:09.095Z,94100.67
2017-07-23T01:44:36.922Z,94094.92
2017-07-23T01:47:04.638Z,94103.07
2017-07-23T01:49:32.408Z,94109.95
2017-07-23T01:52:00.193Z,94101.46
2017-07-23T01:54:27.899Z,94108.58
2017-07-23T01:56:55.689Z,94094.48
2017-07-23T01:59:23.466Z,94108.47
2017-07-23T02:01:51.257Z,94103.94
2017-07-23T02:04:19.003Z,94107.79
2017-07-23T02:06:46.736Z,94105.74
2017-07-23T02:09:14.507Z,94098.77
2017-07-23T02:11:42.277Z,94106.24
2017-07-23T02:14:10.113Z,94098.48
2017-07-23T02:16:37.874Z,94105.32
2017-07-23T02:19:05.590Z,94099.86
2017-07-23T02:21:33.279Z,94095.40
2017-07-23T02:24:01.010Z,94093.80
2017-07-23T02:26:28.776Z,94089.81
2017-07-23T02:28:56.489Z,94095.42
2017-07-23T02:31:24.226Z,94090.16
2017-07-23T02:33:51.937Z,94100.98
2017-07-23T02:36:19.693Z,94091.08
2017-07-23T02:38:47.398Z,94095.83
2017-07-23T02:41:15.133Z,94099.25
2017-07-23T02:43:42.904Z,94096.75
2017-07-23T02:46:10.634Z,94097.94
2017-07-23T02:48:38.462Z,94102.95
2017-07-23T02:51:06.188Z,94112.84
2017-07-23T02:53:33.909Z,94111.26
2017-07-23T02:56:01.685Z,94111.77
2017-07-23T02:58:29.445Z,94118.31
2017-07-23T03:00:57.967Z,94114.95
2017-07-23T03:03:25.701Z,94117.51
2017-07-23T03:05:53.486Z,94127.41
2017-07-23T03:08:21.194Z,94120.74
2017-07-23T03:10:48.935Z,94123.77
2017-07-23T03:13:16.640Z,94130.11
2017-07-23T03:15:44.321Z,94127.42
2017-07-23T03:18:12.111Z,94135.33
2017-07-23T03:20:39.788Z,94134.05
2017-07-23T03:23:07.489Z,94128.42
2017-07-23T03:25:35.236Z,94128.45
2017-07-23T03:28:03.022Z,94128.60
2017-07-23T03:30:30.843Z,94126.05
2017-07-23T03:32:58.535Z,94127.02
2017-07-23T03:35:26.298Z,94115.85
2017-07-23T03:37:54.018Z,94119.98
2017-07-23T03:40:21.784Z,94117.31
2017-07-23T03:42:49.794Z,94112.42
2017-07-23T03:45:17.528Z,94116.31
2017-07-23T03:47:45.297Z,94117.53
2017-07-23T03:50:13.006Z,94126.34
2017-07-23T03:52:40.751Z,94125.81
2017-07-23T03:55:08.543Z,94124.42
2017-07-23T03:57:36.253Z,94134.08
2017-07-23T04:00:04.072Z,94131.92
2017-07-23T04:02:31.773Z,94143.34
2017-07-23T04:04:59.532Z,94144.41
2017-07-23T04:07:27.345Z,94148.73
2017-07-23T04:09:55.065Z,94159.81
2017-07-23T04:12:22.765Z,94166.53
2017-07-23T04:14:50.551Z,94176.01
2017-07-23T04:17:18.310Z,94191.61
2017-07-23T04:19:46.027Z,94193.56
2017-07-23T04:22:13.806Z,94201.62
2017-07-23T04:24:41.509Z,94200.06
2017-07-23T04:27:09.260Z,94203.36
2017-07-23T04:29:36.949Z,94207.71
2017-07-23T04:32:04.729Z,94208.54
2017-07-23T04:34:32.470Z,94212.45
2017-07-23T04:37:00.249Z,94216.77
2017-07-23T04:39:28.019Z,94205.70
2017-07-23T04:41:55.784Z,94206.09
2017-07-23T04:44:23.559Z,94217.17
2017-07-23T04:46:51.305Z,94207.67
2017-07-23T04:49:19.058Z,94212.36
2017-07-23T04:51:46.822Z,94211.22
2017-07-23T04:54:14.555Z,94220.92
2017-07-23T04:56:42.334Z,94230.78
2017-07-23T04:59:10.032Z,94243.86
2017-07-23T05:01:37.756Z,94250.42
2017-07-23T05:04:05.533Z,94246.72
2017-07-23T05:06:33.320Z,94243.84
2017-07-23T05:09:01.065Z,94247.00
2017-07-23T05:11:28.815Z,94263.23
2017-07-23T05:13:56.652Z,94273.80
2017-07-23T05:16:24.381Z,94284.17
2017-07-23T05:18:52.150Z,94283.49
2017-07-23T05:21:19.880Z,94287.91
2017-07-23T05:23:47.834Z,94270.48
2017-07-23T05:26:16.375Z,94264.69
2017-07-23T05:28:44.114Z,94272.30
2017-07-23T05:31:11.924Z,94278.42
2017-07-23T05:33:39.637Z,94286.99
2017-07-23T05:36:07.392Z,94292.52
2017-07-23T05:38:35.110Z,94294.92
2017-07-23T05:41:02.869Z,94300.45
2017-07-23T05:43:30.588Z,94307.17
2017-07-23T05:45:58.363Z,94321.91
2017-07-23T05:48:26.080Z,94322.31
2017-07-23T05:50:53.793Z,94317.67
2017-07-23T05:53:21.671Z,94320.44
2017-07-23T05:55:49.396Z,94317.63
2017-07-23T05:58:17.154Z,94325.57
2017-07-23T06:00:44.898Z,94325.27
2017-07-23T06:03:12.632Z,94326.00
2017-07-23T06:05:40.396Z,94328.16
2017-07-23T06:08:08.100Z,94330.22
2017-07-23T06:10:35.791Z,94328.45
2017-07-23T06:13:03.572Z,94332.40
2017-07-23T06:15:31.262Z,94337.60
2017-07-23T06:17:59.048Z,94331.61
2017-07-23T06:20:27.586Z,94332.87
2017-07-23T06:22:55.361Z,94328.33
2017-07-23T06:25:23.152Z,94322.23
2017-07-23T06:27:50.858Z,94315.84
2017-07-23T06:30:18.597Z,94318.27
2017-07-23T06:32:46.348Z,94328.98
2017-07-23T06:35:14.134Z,94322.84
2017-07-23T06:37:42.014Z,94321.28
2017-07-23T06:40:10.882Z,94326.23
2017-07-23T06:42:39.108Z,94331.63
2017-07-23T06:45:07.052Z,94329.59
2017-07-23T06:47:34.824Z,94339.89
2017-07-23T06:50:02.605Z,94335.45
2017-07-23T06:52:30.432Z,94326.86
2017-07-23T06:54:58.152Z,94335.50
2017-07-23T06:57:25.872Z,94333.73
2017-07-23T06:59:53.639Z,94323.88
2017-07-23T07:02:21.396Z,94326.62
2017-07-23T07:04:49.894Z,94321.05
2017-07-23T07:07:17.595Z,94318.78
2017-07-23T07:09:45.414Z,94313.03
2017-07-23T07:12:13.162Z,94310.52
2017-07-23T07:14:40.943Z,94311.52
2017-07-23T07:17:08.707Z,94309.44
2017-07-23T07:19:36.445Z,94304.76
2017-07-23T07:22:04.221Z,94302.70
2017-07-23T07:24:32.053Z,94296.52
2017-07-23T07:29:26.867Z,94287.78
2017-07-23T07:31:54.570Z,94282.80
2017-07-23T07:34:22.397Z,94285.01
2017-07-23T07:36:50.236Z,94276.02
2017-07-23T07:39:18.068Z,94276.27
2017-07-23T07:41:45.816Z,94270.55
2017-07-23T07:44:13.568Z,94272.23
2017-07-23T07:46:41.392Z,94268.05
2017-07-23T07:49:11.420Z,94262.13
2017-07-23T07:51:39.991Z,94270.45
2017-07-23T07:54:07.808Z,94263.17
2017-07-23T07:56:35.620Z,94259.81
2017-07-23T07:59:03.409Z,94261.95
2017-07-23T08:01:31.165Z,94264.45
2017-07-23T08:03:58.974Z,94263.84
2017-07-23T08:06:26.694Z,94257.81
2017-07-23T08:08:54.482Z,94258.92
2017-07-23T08:11:22.336Z,94253.55
2017-07-23T08:13:50.334Z,94248.67
2017-07-23T08:16:18.093Z,94244.78
2017-07-23T08:18:45.859Z,94239.23
2017-07-23T08:21:13.732Z,94243.73
2017-07-23T08:23:41.568Z,94235.99
2017-07-23T08:26:09.336Z,94230.19
2017-07-23T08:28:37.049Z,94227.55
2017-07-23T08:31:04.738Z,94226.48
2017-07-23T08:33:32.562Z,94224.11
2017-07-23T08:36:00.347Z,94219.57
2017-07-23T08:38:28.096Z,94222.80
2017-07-23T08:40:55.934Z,94219.22
2017-07-23T08:43:23.745Z,94219.23
2017-07-23T08:45:51.649Z,94225.14
2017-07-23T08:48:19.381Z,94218.48
2017-07-23T08:50:47.177Z,94220.10
2017-07-23T08:53:15.692Z,94223.37
2017-07-23T08:55:43.481Z,94227.83
2017-07-23T08:58:11.195Z,94219.64
2017-07-23T09:00:38.983Z,94225.03
2017-07-23T09:03:06.737Z,94222.47
2017-07-23T09:05:34.486Z,94224.34
2017-07-23T09:08:02.388Z,94221.63
2017-07-23T09:10:30.164Z,94216.05
2017-07-23T09:12:58.087Z,94214.60
2017-07-23T09:15:25.941Z,94210.94
2017-07-23T09:17:54.034Z,94210.59
2017-07-23T09:20:22.081Z,94209.36
2017-07-23T09:22:49.969Z,94213.27
2017-07-23T09:25:17.790Z,94215.40
2017-07-23T09:27:45.582Z,94205.90
2017-07-23T09:30:13.333Z,94201.83
2017-07-23T09:32:41.162Z,94211.73
2017-07-23T09:35:09.007Z,94208.06
2017-07-23T09:37:36.900Z,94207.89
2017-07-23T09:40:04.695Z,94210.95
2017-07-23T09:42:32.512Z,94212.27
2017-07-23T09:45:00.396Z,94217.38
2017-07-23T09:47:28.311Z,94211.26
2017-07-23T09:49:56.091Z,94211.02
2017-07-23T09:52:23.896Z,94208.02
2017-07-23T09:54:51.740Z,94212.27
2017-07-23T09:57:20.659Z,94213.33
2017-07-23T09:59:48.507Z,94210.94
2017-07-23T10:02:16.391Z,94205.88
2017-07-23T10:04:44.239Z,94209.42
2017-07-23T10:07:12.043Z,94210.59
2017-07-23T10:09:39.872Z,94207.70
2017-07-23T10:12:07.803Z,94204.12
2017-07-23T10:14:35.581Z,94207.86
2017-07-23T10:17:03.443Z,94203.31
2017-07-23T10:19:31.186Z,94205.92
2017-07-23T10:21:58.911Z,94204.50
2017-07-23T10:24:26.752Z,94204.58
2017-07-23T10:26:54.577Z,94206.14
2017-07-23T10:29:22.349Z,94215.83
2017-07-23T10:31:50.153Z,94209.45
2017-07-23T10:34:17.915Z,94208.40
2017-07-23T10:36:45.772Z,94215.30
2017-07-23T10:39:13.504Z,94217.41
2017-07-23T10:41:41.276Z,94211.47
2017-07-23T10:44:09.096Z,94210.55
2017-07-23T10:46:36.829Z,94211.14
2017-07-23T10:49:04.637Z,94208.53
2017-07-23T10:51:32.476Z,94208.95
2017-07-23T10:54:00.276Z,94204.29
2017-07-23T10:56:28.148Z,94196.69
2017-07-23T10:58:55.925Z,94199.39
2017-07-23T11:01:23.694Z,94193.06
2017-07-23T11:03:51.593Z,94204.23
2017-07-23T11:06:19.384Z,94207.39
2017-07-23T11:08:47.341Z,94199.97
2017-07-23T11:11:15.198Z,94196.05
2017-07-23T11:13:43.628Z,94191.13
2017-07-23T11:16:11.419Z,94190.10
2017-07-23T11:18:39.200Z,94186.56
2017-07-23T11:21:06.975Z,94184.77
2017-07-23T11:23:34.745Z,94183.16
2017-07-23T11:26:02.572Z,94182.30
2017-07-23T11:28:30.496Z,94177.55
2017-07-23T11:30:58.670Z,94175.16
2017-07-23T11:33:26.957Z,94176.58
2017-07-23T11:35:54.803Z,94177.94
2017-07-23T11:38:22.508Z,94175.05
2017-07-23T11:40:50.371Z,94166.33
2017-07-23T11:43:19.109Z,94165.56
2017-07-23T11:45:47.033Z,94167.39
2017-07-23T11:48:15.158Z,94169.52
2017-07-23T11:50:42.925Z,94173.33
2017-07-23T11:53:10.680Z,94169.28
2017-07-23T11:55:38.454Z,94178.69
2017-07-23T11:58:06.266Z,94174.38
2017-07-23T12:00:34.094Z,94165.89
2017-07-23T12:03:01.928Z,94164.71
2017-07-23T12:05:32.826Z,94167.73
2017-07-23T12:08:00.572Z,94173.13
2017-07-23T12:10:29.729Z,94172.67
2017-07-23T12:12:58.393Z,94171.27
2017-07-23T12:15:26.202Z,94176.03
2017-07-23T12:17:53.974Z,94177.75
2017-07-23T12:20:21.692Z,94172.06
2017-07-23T12:22:49.436Z,94175.80
2017-07-23T12:25:17.213Z,94177.73
2017-07-23T12:27:45.052Z,94178.83
2017-07-23T12:30:12.806Z,94171.03
2017-07-23T12:32:40.580Z,94176.76
2017-07-23T12:35:08.461Z,94170.77
2017-07-23T12:37:36.252Z,94173.21
2017-07-23T12:40:04.065Z,94168.03
2017-07-23T12:42:31.864Z,94164.73
2017-07-23T12:44:59.687Z,94160.03
2017-07-23T12:47:27.428Z,94150.52
2017-07-23T12:49:55.225Z,94159.81
2017-07-23T12:52:22.971Z,94162.44
2017-07-23T12:54:50.754Z,94151.77
2017-07-23T12:57:19.202Z,94150.41
2017-07-23T12:59:47.127Z,94158.75
2017-07-23T13:02:16.033Z,94149.98
2017-07-23T13:04:43.802Z,94144.58
2017-07-23T13:07:11.579Z,94136.51
2017-07-23T13:09:39.386Z,94126.77
2017-07-23T13:12:07.265Z,94131.12
2017-07-23T13:14:35.911Z,94124.28
2017-07-23T13:17:04.752Z,94117.41
2017-07-23T13:19:32.613Z,94115.80
2017-07-23T13:22:00.465Z,94107.91
2017-07-23T13:24:28.257Z,94101.71
2017-07-23T13:26:56.027Z,94102.18
2017-07-23T13:29:23.882Z,94107.98
2017-07-23T13:31:51.774Z,94101.26
2017-07-23T13:34:19.557Z,94099.70
2017-07-23T13:36:47.362Z,94092.81
2017-07-23T13:39:15.152Z,94093.53
2017-07-23T13:41:42.924Z,94086.55
2017-07-23T13:44:10.674Z,94089.34
2017-07-23T13:46:38.458Z,94094.77
2017-07-23T13:49:07.144Z,94092.66
2017-07-23T13:51:34.928Z,94089.73
2017-07-23T13:54:02.708Z,94088.45
2017-07-23T13:56:30.420Z,94086.21
2017-07-23T13:58:58.233Z,94090.52
2017-07-23T14:01:25.997Z,94088.67
2017-07-23T14:03:53.780Z,94086.91
2017-07-23T14:06:21.500Z,94079.77
2017-07-23T14:08:49.500Z,94072.36
2017-07-23T14:11:18.370Z,94071.09
2017-07-23T14:13:46.301Z,94063.78
2017-07-23T14:16:14.095Z,94061.34
2017-07-23T14:18:42.738Z,94063.19
2017-07-23T14:21:10.527Z,94058.11
2017-07-23T14:23:38.305Z,94061.86
2017-07-23T14:26:06.108Z,94061.50
2017-07-23T14:28:33.933Z,94053.39
2017-07-23T14:31:02.081Z,94054.75
2017-07-23T14:33:30.039Z,94049.13
2017-07-23T14:35:57.881Z,94049.11
2017-07-23T14:38:25.586Z,94038.12
2017-07-23T14:40:53.345Z,94035.66
2017-07-23T14:43:21.057Z,94034.80
2017-07-23T14:45:48.847Z,94033.07
2017-07-23T14:48:17.004Z,94037.94
2017-07-23T14:50:45.508Z,94022.47
2017-07-23T14:53:13.532Z,94014.41
2017-07-23T14:55:41.268Z,94021.40
2017-07-23T14:58:09.093Z,94025.03
2017-07-23T15:00:36.811Z,94023.53
2017-07-23T15:03:04.545Z,94019.67
2017-07-23T15:05:32.304Z,94014.52
2017-07-23T15:08:00.067Z,94010.81
2017-07-23T15:10:27.840Z,94009.29
2017-07-23T15:12:55.637Z,93997.66
2017-07-23T15:15:23.339Z,94001.01
2017-07-23T15:17:51.053Z,94002.48
2017-07-23T15:20:18.806Z,94003.81
2017-07-23T15:22:46.562Z,94010.06
2017-07-23T15:25:14.333Z,94001.52
2017-07-23T15:27:42.085Z,93999.62
2017-07-23T15:30:09.968Z,94003.19
2017-07-23T15:32:37.801Z,94000.71
2017-07-23T15:35:05.662Z,93990.98
2017-07-23T15:37:33.535Z,93988.83
2017-07-23T15:40:01.271Z,93985.73
2017-07-23T15:42:29.046Z,93985.08
2017-07-23T15:44:56.856Z,93993.73
2017-07-23T15:47:24.616Z,93992.39
2017-07-23T15:49:52.447Z,93992.25
2017-07-23T15:52:20.214Z,94002.18
2017-07-23T15:54:48.069Z,93998.34
2017-07-23T15:57:15.821Z,93995.30
2017-07-23T15:59:43.713Z,93999.89
2017-07-23T16:02:11.490Z,94002.20
2017-07-23T16:04:39.220Z,93997.11
2017-07-23T16:07:07.107Z,93985.31
2017-07-23T16:09:34.842Z,93991.92
2017-07-23T16:12:02.621Z,93996.88
2017-07-23T16:14:30.426Z,93990.75
2017-07-23T16:16:58.215Z,93987.91
2017-07-23T16:19:26.040Z,93990.56
2017-07-23T16:21:53.847Z,93989.23
2017-07-23T16:24:21.681Z,93989.48
2017-07-23T16:26:49.455Z,93990.19
2017-07-23T16:29:17.280Z,94000.30
2017-07-23T16:31:45.427Z,94011.74
2017-07-23T16:34:13.452Z,94013.98
2017-07-23T16:36:41.262Z,94022.34
2017-07-23T16:39:09.099Z,94012.90
2017-07-23T16:41:36.900Z,94006.02
2017-07-23T16:44:04.767Z,94017.84
2017-07-23T16:46:32.558Z,94023.42
2017-07-23T16:49:00.435Z,94022.80
2017-07-23T16:51:28.360Z,94020.36
2017-07-23T16:53:56.157Z,94021.47
2017-07-23T16:56:23.975Z,94023.27
2017-07-23T16:58:51.733Z,94030.30
2017-07-23T17:01:19.558Z,94030.25
2017-07-23T17:03:47.305Z,94037.47
2017-07-23T17:06:15.186Z,94024.35
2017-07-23T17:08:42.919Z,94015.45
2017-07-23T17:11:10.603Z,94014.22
2017-07-23T17:13:38.444Z,94029.47
2017-07-23T17:16:06.152Z,94032.87
2017-07-23T17:18:33.876Z,94038.76
2017-07-23T17:21:01.785Z,94044.25
2017-07-23T17:23:29.635Z,94044.27
2017-07-23T17:25:57.357Z,94036.43
2017-07-23T17:28:25.147Z,94049.83
2017-07-23T17:30:52.947Z,94058.63
2017-07-23T17:33:20.790Z,94065.80
2017-07-23T17:35:49.442Z,94076.66
2017-07-23T17:38:17.200Z,94087.67
2017-07-23T17:40:44.994Z,94098.45
2017-07-23T17:43:12.716Z,94096.54
2017-07-23T17:45:40.482Z,94105.48
2017-07-23T17:48:08.248Z,94120.51
2017-07-23T17:50:36.024Z,94121.20
2017-07-23T17:53:03.846Z,94114.38
2017-07-23T17:55:31.620Z,94111.91
2017-07-23T17:57:59.417Z,94110.44
2017-07-23T18:00:27.247Z,94121.23
2017-07-23T18:02:54.975Z,94128.70
2017-07-23T18:05:22.772Z,94132.53
2017-07-23T18:07:51.265Z,94131.53
2017-07-23T18:10:19.009Z,94129.50
2017-07-23T18:12:47.791Z,94132.60
2017-07-23T18:15:15.611Z,94135.15
2017-07-23T18:17:43.399Z,94134.53
2017-07-23T18:20:11.176Z,94138.59
2017-07-23T18:22:38.919Z,94142.47
2017-07-23T18:25:07.089Z,94145.74
2017-07-23T18:27:34.855Z,94142.08
2017-07-23T18:30:02.721Z,94144.69
2017-07-23T18:32:30.564Z,94154.08
2017-07-23T18:34:58.333Z,94160.13
2017-07-23T18:37:26.070Z,94163.70
2017-07-23T18:39:53.843Z,94175.95
2017-07-23T18:42:21.598Z,94190.52
2017-07-23T18:44:49.349Z,94198.41
2017-07-23T18:47:17.146Z,94188.04
2017-07-23T18:49:45.067Z,94184.02
2017-07-23T18:52:12.790Z,94188.52
2017-07-23T18:54:40.603Z,94187.44
2017-07-23T18:57:08.328Z,94190.33
2017-07-23T18:59:36.088Z,94190.26
2017-07-23T19:02:03.809Z,94193.72
2017-07-23T19:04:31.634Z,94188.25
2017-07-23T19:06:59.374Z,94192.53
2017-07-23T19:09:27.200Z,94189.95
2017-07-23T19:11:54.911Z,94192.97
2017-07-23T19:14:22.800Z,94200.97
2017-07-23T19:16:50.580Z,94209.14
2017-07-23T19:19:18.314Z,94213.75
2017-07-23T19:21:46.103Z,94229.94
2017-07-23T19:24:13.863Z,94229.31
2017-07-23T19:26:41.705Z,94229.36
2017-07-23T19:29:09.645Z,94231.91
2017-07-23T19:31:37.345Z,94231.80
2017-07-23T19:34:05.225Z,94236.64
2017-07-23T19:36:32.958Z,94233.13
2017-07-23T19:39:00.717Z,94236.98
2017-07-23T19:41:28.529Z,94240.05
2017-07-23T19:43:56.348Z,94243.06
2017-07-23T19:46:24.136Z,94240.63
2017-07-23T19:48:51.932Z,94245.81
2017-07-23T19:51:19.713Z,94238.11
2017-07-23T19:53:47.485Z,94232.72
2017-07-23T19:56:15.277Z,94237.66
2017-07-23T19:58:42.993Z,94239.79
2017-07-23T20:01:10.769Z,94246.89
2017-07-23T20:03:38.604Z,94244.03
2017-07-23T20:06:06.359Z,94242.08
2017-07-23T20:08:34.084Z,94243.45
2017-07-23T20:11:01.943Z,94244.78
2017-07-23T20:13:29.707Z,94231.09
2017-07-23T20:15:57.470Z,94229.50
2017-07-23T20:18:25.336Z,94226.82
2017-07-23T20:20:53.082Z,94231.45
2017-07-23T20:23:20.807Z,94231.35
2017-07-23T20:25:48.604Z,94222.98
2017-07-23T20:28:16.372Z,94217.24
2017-07-23T20:30:44.180Z,94216.78
2017-07-23T20:33:11.944Z,94221.14
2017-07-23T20:35:39.776Z,94218.95
2017-07-23T20:38:07.546Z,94224.06
2017-07-23T20:40:35.317Z,94230.87
2017-07-23T20:43:03.138Z,94227.72
2017-07-23T20:45:30.881Z,94237.83
2017-07-23T20:47:58.598Z,94228.81
2017-07-23T20:50:26.366Z,94226.55
2017-07-23T20:52:54.948Z,94224.03
2017-07-23T20:55:22.746Z,94223.83
2017-07-23T20:57:51.497Z,94212.61
2017-07-23T21:00:19.775Z,94205.62
2017-07-23T21:02:47.516Z,94201.83
2017-07-23T21:05:15.295Z,94196.75
2017-07-23T21:07:43.046Z,94199.76
2017-07-23T21:10:10.753Z,94195.70
2017-07-23T21:12:38.525Z,94193.39
2017-07-23T21:15:06.417Z,94186.80
2017-07-23T21:17:34.433Z,94181.34
2017-07-23T21:20:02.215Z,94184.84
2017-07-23T21:22:29.990Z,94183.76
2017-07-23T21:24:57.780Z,94193.07
2017-07-23T21:27:25.522Z,94190.92
2017-07-23T21:29:53.355Z,94192.95
2017-07-23T21:32:21.155Z,94182.89
2017-07-23T21:34:48.870Z,94194.38
2017-07-23T21:37:16.700Z,94191.39
2017-07-23T21:39:44.480Z,94188.84
2017-07-23T21:42:12.277Z,94183.41
2017-07-23T21:44:40.087Z,94181.84
2017-07-23T21:47:09.122Z,94181.86
2017-07-23T21:49:36.937Z,94189.19
2017-07-23T21:52:04.866Z,94188.80
2017-07-23T21:54:32.699Z,94184.38
2017-07-23T21:57:00.470Z,94185.80
2017-07-23T21:59:28.266Z,94180.28
2017-07-23T22:01:56.043Z,94170.27
2017-07-23T22:04:23.868Z,94167.73
2017-07-23T22:06:51.668Z,94163.56
2017-07-23T22:09:19.538Z,94162.20
2017-07-23T22:11:48.274Z,94157.19
2017-07-23T22:14:16.059Z,94151.64
2017-07-23T22:16:43.934Z,94147.41
2017-07-23T22:19:11.652Z,94140.45
2017-07-23T22:21:39.382Z,94134.41
2017-07-23T22:24:07.352Z,94138.36
2017-07-23T22:26:35.136Z,94140.52
2017-07-23T22:29:02.833Z,94143.66
2017-07-23T22:31:30.571Z,94135.89
2017-07-23T22:33:58.326Z,94121.91
2017-07-23T22:36:28.686Z,94108.80
2017-07-23T22:38:57.493Z,94109.20
2017-07-23T22:41:26.689Z,94111.50
2017-07-23T22:43:56.864Z,94113.33
2017-07-23T22:46:27.005Z,94118.55
2017-07-23T22:48:55.064Z,94117.66
2017-07-23T22:51:27.589Z,94127.24
2017-07-23T22:53:56.951Z,94125.89
2017-07-23T22:56:27.660Z,94125.71
2017-07-23T22:59:02.584Z,94119.84
2017-07-23T23:01:37.530Z,94110.77
2017-07-23T23:04:07.138Z,94111.55
2017-07-23T23:06:36.537Z,94107.02
2017-07-23T23:09:09.590Z,94100.81
2017-07-23T23:11:37.290Z,94101.14
2017-07-23T23:14:05.059Z,94091.54
2017-07-23T23:16:32.801Z,94091.85
2017-07-23T23:19:00.516Z,94081.80
2017-07-23T23:21:28.266Z,94089.44
2017-07-23T23:23:55.981Z,94093.39
2017-07-23T23:26:23.766Z,94097.94
2017-07-23T23:28:51.496Z,94109.58
2017-07-23T23:31:19.271Z,94118.52
2017-07-23T23:33:47.015Z,94125.75
2017-07-23T23:36:14.748Z,94119.83
2017-07-23T23:38:42.512Z,94118.48
2017-07-23T23:41:10.208Z,94110.84
2017-07-23T23:43:38.912Z,94112.80
2017-07-23T23:46:06.631Z,94112.45
2017-07-23T23:48:34.394Z,94111.02
2017-07-23T23:51:02.154Z,94098.98
2017-07-23T23:53:29.917Z,94082.52
2017-07-23T23:55:57.645Z,94071.17
2017-07-23T23:58:25.352Z,94072.53
